createdAt,value
2022-10-29T00:07:34.071Z,1242.80
2022-10-29T00:12:33.605Z,1228.30
2022-10-29T00:17:33.774Z,1228.30
2022-10-29T00:22:33.508Z,1206.90
2022-10-29T00:27:34.002Z,1206.90
2022-10-29T00:32:33.581Z,1228.90
2022-10-29T00:37:33.692Z,1228.90
2022-10-29T00:42:33.533Z,1260.20
2022-10-29T00:47:33.690Z,1260.20
2022-10-29T00:52:33.828Z,1223.00
2022-10-29T00:57:33.628Z,1223.00
2022-10-29T01:02:33.627Z,1222.30
2022-10-29T01:07:33.632Z,1222.30
2022-10-29T01:12:33.747Z,1158.70
2022-10-29T01:17:33.601Z,1158.70
2022-10-29T01:22:33.777Z,1053.80
2022-10-29T01:27:33.569Z,1053.80
2022-10-29T01:32:33.687Z,968.80
2022-10-29T01:37:33.848Z,968.80
2022-10-29T01:47:34.073Z,1086.80
2022-10-29T01:52:33.558Z,1047.90
2022-10-29T02:02:33.555Z,1221.00
2022-10-29T02:07:33.583Z,1221.00
2022-10-29T02:12:33.546Z,1330.80
2022-10-29T02:17:33.573Z,1330.80
2022-10-29T02:22:33.860Z,1294.80
2022-10-29T02:27:33.695Z,1294.80
2022-10-29T02:32:33.819Z,1285.40
2022-10-29T02:37:33.627Z,1285.40
2022-10-29T02:42:33.582Z,1274.30
2022-10-29T02:47:33.605Z,1274.30
2022-10-29T02:52:33.604Z,1284.60
2022-10-29T02:57:33.923Z,1284.60
2022-10-29T03:02:33.637Z,1308.50
2022-10-29T03:07:34.118Z,1308.50
2022-10-29T03:12:33.687Z,1326.00
2022-10-29T03:17:33.597Z,1326.00
2022-10-29T03:22:33.703Z,1331.80
2022-10-29T03:27:33.625Z,1331.80
2022-10-29T03:32:33.656Z,1324.50
2022-10-29T03:37:33.800Z,1324.50
2022-10-29T03:42:33.770Z,1322.50
2022-10-29T03:47:33.767Z,1322.50
2022-10-29T03:52:33.632Z,1315.80
2022-10-29T03:57:33.738Z,1315.80
2022-10-29T04:02:34.015Z,1293.80
2022-10-29T04:07:33.698Z,1293.80
2022-10-29T04:12:33.864Z,1243.40
2022-10-29T04:17:33.644Z,1243.40
2022-10-29T04:32:33.738Z,1214.10
2022-10-29T04:37:33.932Z,1214.10
2022-10-29T04:42:33.638Z,1221.30
2022-10-29T04:47:33.637Z,1221.30
2022-10-29T04:52:33.652Z,1225.00
2022-10-29T04:57:33.664Z,1225.00
2022-10-29T05:02:33.764Z,1310.10
2022-10-29T05:07:33.691Z,1310.10
2022-10-29T05:12:33.636Z,1319.40
2022-10-29T05:17:33.813Z,1319.40
2022-10-29T05:22:33.924Z,1336.40
2022-10-29T05:27:33.785Z,1336.40
2022-10-29T05:37:33.753Z,1334.80
2022-10-29T05:42:33.652Z,1299.50
2022-10-29T05:47:33.722Z,1299.50
2022-10-29T05:52:33.834Z,1303.50
2022-10-29T05:57:33.997Z,1303.50
2022-10-29T06:02:33.942Z,1306.00
2022-10-29T06:07:33.664Z,1306.00
2022-10-29T06:12:34.891Z,1312.40
2022-10-29T06:17:33.949Z,1312.40
2022-10-29T06:22:33.717Z,1296.50
2022-10-29T06:27:34.130Z,1296.50
2022-10-29T06:32:33.843Z,1299.20
2022-10-29T06:37:33.676Z,1299.20
2022-10-29T06:42:34.003Z,1314.30
2022-10-29T06:47:33.827Z,1314.30
2022-10-29T06:52:33.695Z,1276.40
2022-10-29T07:02:33.706Z,1239.20
2022-10-29T07:07:33.792Z,1239.20
2022-10-29T07:17:33.737Z,1183.80
2022-10-29T07:22:34.896Z,1111.60
2022-10-29T07:27:34.106Z,1111.60
2022-10-29T07:32:33.694Z,1098.50
2022-10-29T07:37:33.994Z,1098.50
2022-10-29T07:42:33.713Z,1187.20
2022-10-29T07:47:33.701Z,1187.20
2022-10-29T07:52:33.740Z,1116.20
2022-10-29T07:57:33.721Z,1116.20
2022-10-29T08:02:33.700Z,1261.20
2022-10-29T08:07:33.919Z,1261.20
2022-10-29T08:12:34.065Z,1275.00
2022-10-29T08:17:33.896Z,1275.00
2022-10-29T08:22:34.026Z,1261.70
2022-10-29T08:27:33.760Z,1261.70
2022-10-29T08:32:33.994Z,1263.30
2022-10-29T08:37:33.804Z,1263.30
2022-10-29T08:42:33.752Z,1284.40
2022-10-29T08:47:33.808Z,1284.40
2022-10-29T08:52:33.740Z,1271.90
2022-10-29T09:02:33.894Z,1256.20
2022-10-29T09:07:33.755Z,1256.20
2022-10-29T09:17:33.999Z,1225.30
2022-10-29T09:22:33.806Z,1226.50
2022-10-29T09:27:33.968Z,1226.50
2022-10-29T09:32:33.827Z,1207.20
2022-10-29T09:37:33.967Z,1207.20
2022-10-29T09:42:34.151Z,1116.70
2022-10-29T09:47:33.743Z,1116.70
2022-10-29T09:52:34.045Z,1046.40
2022-10-29T09:57:33.907Z,1046.40
2022-10-29T10:02:34.135Z,1057.60
2022-10-29T10:07:33.867Z,1057.60
2022-10-29T10:12:33.956Z,1087.50
2022-10-29T10:17:33.816Z,1087.50
2022-10-29T10:22:33.804Z,1141.60
2022-10-29T10:27:34.069Z,1141.60
2022-10-29T10:32:33.895Z,1153.70
2022-10-29T10:37:33.832Z,1153.70
2022-10-29T10:42:33.934Z,1151.80
2022-10-29T10:47:34.040Z,1151.80
2022-10-29T10:52:33.892Z,1163.40
2022-10-29T11:02:33.869Z,1062.90
2022-10-29T11:07:33.996Z,1062.90
2022-10-29T11:12:34.094Z,1117.70
2022-10-29T11:17:33.933Z,1117.70
2022-10-29T11:22:33.819Z,1098.30
2022-10-29T11:27:33.915Z,1098.30
2022-10-29T11:32:34.084Z,1104.80
2022-10-29T11:37:33.882Z,1104.80
2022-10-29T11:42:33.823Z,1193.30
2022-10-29T11:47:33.858Z,1193.30
2022-10-29T11:52:35.697Z,1248.50
2022-10-29T11:57:34.415Z,1248.50
2022-10-29T12:02:33.807Z,1219.30
2022-10-29T12:07:34.129Z,1219.30
2022-10-29T12:12:34.217Z,1246.90
2022-10-29T12:17:34.476Z,1246.90
2022-10-29T12:22:33.938Z,1238.00
2022-10-29T12:27:33.874Z,1238.00
2022-10-29T12:32:33.901Z,1215.60
2022-10-29T12:37:34.045Z,1215.60
2022-10-29T12:42:34.176Z,1206.70
2022-10-29T12:47:33.826Z,1206.70
2022-10-29T12:52:33.881Z,1184.50
2022-10-29T12:57:33.864Z,1184.50
2022-10-29T13:02:34.042Z,1160.20
2022-10-29T13:07:33.904Z,1160.20
2022-10-29T13:12:34.352Z,1141.40
2022-10-29T13:17:33.983Z,1141.40
2022-10-29T13:22:34.174Z,1059.00
2022-10-29T13:27:34.100Z,1059.00
2022-10-29T13:32:34.036Z,1084.60
2022-10-29T13:37:34.172Z,1084.60
2022-10-29T13:42:33.963Z,1056.50
2022-10-29T13:47:33.890Z,1056.50
2022-10-29T13:52:33.944Z,988.40
2022-10-29T13:57:34.107Z,988.40
2022-10-29T14:02:33.999Z,978.10
2022-10-29T14:07:34.081Z,978.10
2022-10-29T14:12:33.913Z,1052.40
2022-10-29T14:17:34.052Z,1052.40
2022-10-29T14:22:34.191Z,1025.40
2022-10-29T14:27:33.973Z,1025.40
2022-10-29T14:32:34.633Z,1016.30
2022-10-29T14:42:34.147Z,1073.70
2022-10-29T14:47:33.968Z,1073.70
2022-10-29T14:52:34.104Z,1109.50
2022-10-29T14:57:33.886Z,1109.50
2022-10-29T15:02:38.024Z,1132.60
2022-10-29T15:12:33.920Z,1084.70
2022-10-29T15:17:34.190Z,1084.70
2022-10-29T15:22:33.911Z,1069.00
2022-10-29T15:27:34.196Z,1069.00
2022-10-29T15:32:33.959Z,1104.40
2022-10-29T15:37:34.119Z,1104.40
2022-10-29T15:42:33.905Z,1135.20
2022-10-29T15:47:33.927Z,1135.20
2022-10-29T15:52:33.943Z,1022.80
2022-10-29T15:57:33.972Z,1022.80
2022-10-29T16:02:33.995Z,972.90
2022-10-29T16:07:34.054Z,972.90
2022-10-29T16:12:33.930Z,985.20
2022-10-29T16:17:34.004Z,985.20
2022-10-29T16:27:34.532Z,943.50
2022-10-29T16:32:34.117Z,996.50
2022-10-29T16:37:34.023Z,996.50
2022-10-29T16:42:34.083Z,976.80
2022-10-29T16:47:34.375Z,976.80
2022-10-29T16:52:34.014Z,982.40
2022-10-29T16:57:33.971Z,982.40
2022-10-29T17:02:34.019Z,988.20
2022-10-29T17:07:34.417Z,988.20
2022-10-29T17:12:34.761Z,685.10
2022-10-29T17:17:34.103Z,685.10
2022-10-29T17:22:34.010Z,1055.60
2022-10-29T17:27:34.203Z,1055.60
2022-10-29T17:32:33.946Z,1113.40
2022-10-29T17:37:34.046Z,1113.40
2022-10-29T17:42:34.196Z,1094.10
2022-10-29T17:47:34.344Z,1094.10
2022-10-29T17:52:34.353Z,1017.80
2022-10-29T17:57:34.321Z,1017.80
2022-10-29T18:02:34.157Z,974.10
2022-10-29T18:07:34.103Z,974.10
2022-10-29T18:12:34.135Z,1011.30
2022-10-29T18:17:34.270Z,1011.30
2022-10-29T18:22:34.056Z,978.70
2022-10-29T18:27:34.235Z,978.70
2022-10-29T18:32:34.010Z,984.80
2022-10-29T18:37:34.212Z,984.80
2022-10-29T18:42:34.008Z,994.10
2022-10-29T18:47:34.016Z,994.10
2022-10-29T18:52:34.005Z,1081.10
2022-10-29T18:57:34.043Z,1081.10
2022-10-29T19:02:34.467Z,1050.40
2022-10-29T19:07:34.186Z,1050.40
2022-10-29T19:12:34.429Z,1090.40
2022-10-29T19:17:34.083Z,1090.40
2022-10-29T19:22:34.024Z,1049.00
2022-10-29T19:32:34.281Z,1042.70
2022-10-29T19:37:34.334Z,1042.70
2022-10-29T19:42:34.124Z,1000.50
2022-10-29T19:47:34.312Z,1000.50
2022-10-29T19:52:34.338Z,993.50
2022-10-29T19:57:35.018Z,993.50
2022-10-29T20:02:34.107Z,937.00
2022-10-29T20:07:34.073Z,937.00
2022-10-29T20:12:34.101Z,1043.90
2022-10-29T20:17:34.125Z,1043.90
2022-10-29T20:22:34.350Z,1074.10
2022-10-29T20:27:34.199Z,1074.10
2022-10-29T20:32:34.083Z,1182.70
2022-10-29T20:37:34.343Z,1182.70
2022-10-29T20:42:34.064Z,1210.30
2022-10-29T20:47:34.085Z,1210.30
2022-10-29T20:52:34.066Z,1217.50
2022-10-29T20:57:34.202Z,1217.50
2022-10-29T21:02:34.221Z,1240.50
2022-10-29T21:07:34.045Z,1240.50
2022-10-29T21:12:34.271Z,1214.30
2022-10-29T21:17:34.374Z,1214.30
2022-10-29T21:22:34.082Z,1154.80
2022-10-29T21:27:34.344Z,1154.80
2022-10-29T21:32:34.105Z,1108.20
2022-10-29T21:37:34.285Z,1108.20
2022-10-29T21:42:34.113Z,978.80
2022-10-29T21:47:34.253Z,978.80
2022-10-29T21:52:34.291Z,1049.30
2022-10-29T21:57:34.216Z,1049.30
2022-10-29T22:02:34.357Z,1049.30
2022-10-29T22:07:34.094Z,966.10
2022-10-29T22:12:34.323Z,966.10
2022-10-29T22:17:34.088Z,992.80
2022-10-29T22:22:34.258Z,992.80
2022-10-29T22:27:34.094Z,1100.80
2022-10-29T22:32:34.249Z,1100.80
2022-10-29T22:37:34.424Z,926.50
2022-10-29T22:42:34.223Z,926.50
2022-10-29T22:47:34.136Z,935.90
2022-10-29T22:57:34.236Z,1022.30
2022-10-29T23:02:34.203Z,1022.30
2022-10-29T23:07:34.329Z,980.30
2022-10-29T23:17:34.550Z,981.30
2022-10-29T23:22:34.176Z,981.30
2022-10-29T23:27:34.267Z,976.50
2022-10-29T23:32:34.125Z,976.50
2022-10-29T23:37:34.157Z,1061.70
2022-10-29T23:42:34.129Z,1061.70
2022-10-29T23:47:34.177Z,1052.50
2022-10-29T23:52:34.154Z,1052.50
2022-10-29T23:57:34.175Z,981.00
